Time;durP1;ratioP1;P1;durP2;ratioP2;P2;SDS_P1;SDS_P2;PMS_P1;PMS_P2;Temp;Humidity;BMP_temperature;BMP_pressure;BME280_temperature;BME280_humidity;BME280_pressure;Samples;Min_cycle;Max_cycle;Signal;HPM_P1;HPM_P2
2023/03/11 00:00:30;;;;;;;3.42;1.67;;;;;;;;;;5014882;28;20111;-76
2023/03/11 00:02:57;;;;;;;2.80;2.33;;;;;;;;;;5013683;28;20316;-76
2023/03/11 00:05:27;;;;;;;1.90;1.75;;;;;;;;;;5016949;28;20060;-76
2023/03/11 00:07:54;;;;;;;4.80;2.13;;;;;;;;;;5020905;28;20037;-77
2023/03/11 00:10:28;;;;;;;4.75;2.50;;;;;;;;;;5014346;28;20087;-77
2023/03/11 00:12:54;;;;;;;3.03;2.05;;;;;;;;;;5017134;28;20521;-76
2023/03/11 00:15:20;;;;;;;3.15;2.38;;;;;;;;;;5016080;28;20769;-75
2023/03/11 00:17:47;;;;;;;5.28;2.40;;;;;;;;;;5020816;28;20045;-82
2023/03/11 00:20:27;;;;;;;2.85;2.20;;;;;;;;;;5014631;28;20030;-76
2023/03/11 00:22:54;;;;;;;;;;;;;;;;;;5014452;28;20026;-76
2023/03/11 00:25:21;;;;;;;3.88;2.63;;;;;;;;;;5016725;28;19913;-76
2023/03/11 00:27:47;;;;;;;2.95;2.22;;;;;;;;;;5015354;28;20061;-75
2023/03/11 00:30:14;;;;;;;3.22;2.40;;;;;;;;;;5015067;28;20025;-75
2023/03/11 00:32:40;;;;;;;4.22;2.75;;;;;;;;;;5016443;28;20199;-76
2023/03/11 00:35:06;;;;;;;1.90;1.70;;;;;;;;;;5018908;28;20069;-76
2023/03/11 00:37:33;;;;;;;3.70;2.13;;;;;;;;;;5013757;28;20457;-76
2023/03/11 00:39:59;;;;;;;3.38;2.05;;;;;;;;;;5018884;28;20026;-76
2023/03/11 00:42:25;;;;;;;5.70;2.83;;;;;;;;;;5013854;28;20060;-76
2023/03/11 00:44:51;;;;;;;4.22;2.03;;;;;;;;;;5020814;28;20025;-76
2023/03/11 00:47:17;;;;;;;4.93;2.25;;;;;;;;;;5019242;28;20482;-75
2023/03/11 00:49:43;;;;;;;5.93;3.47;;;;;;;;;;5018651;28;20501;-75
2023/03/11 00:52:09;;;;;;;2.78;2.00;;;;;;;;;;5020484;28;20036;-75
2023/03/11 00:54:36;;;;;;;7.30;2.75;;;;;;;;;;5020662;28;20025;-76
2023/03/11 00:57:02;;;;;;;4.07;2.85;;;;;;;;;;5015273;28;20022;-75
2023/03/11 00:59:28;;;;;;;4.28;2.92;;;;;;;;;;5014650;28;20021;-75
2023/03/11 01:01:54;;;;;;;4.72;2.50;;;;;;;;;;5010187;28;20058;-76
2023/03/11 01:04:20;;;;;;;3.50;2.53;;;;;;;;;;5011675;28;20886;-75
2023/03/11 01:06:46;;;;;;;5.72;2.95;;;;;;;;;;5015780;28;20040;-76
2023/03/11 01:09:12;;;;;;;3.35;2.35;;;;;;;;;;5020443;28;20159;-75
2023/03/11 01:11:38;;;;;;;3.40;2.38;;;;;;;;;;5012974;28;20025;-75
2023/03/11 01:14:04;;;;;;;3.97;2.58;;;;;;;;;;5010058;28;20022;-75
2023/03/11 01:16:30;;;;;;;7.18;3.00;;;;;;;;;;5009172;28;20103;-75
2023/03/11 01:18:56;;;;;;;4.03;2.47;;;;;;;;;;5016871;28;20025;-75
2023/03/11 01:21:22;;;;;;;4.63;2.80;;;;;;;;;;5015179;28;20067;-74
2023/03/11 01:23:49;;;;;;;4.65;3.00;;;;;;;;;;5016821;28;20312;-75
2023/03/11 01:26:15;;;;;;;7.53;3.33;;;;;;;;;;5010328;28;20053;-74
2023/03/11 01:28:41;;;;;;;4.57;3.00;;;;;;;;;;5016596;28;20037;-75
2023/03/11 01:31:08;;;;;;;3.60;2.50;;;;;;;;;;5014019;28;20825;-74
2023/03/11 01:33:34;;;;;;;4.10;2.53;;;;;;;;;;5014317;28;20011;-75
2023/03/11 01:36:00;;;;;;;3.70;3.20;;;;;;;;;;5017948;28;20022;-75
2023/03/11 01:38:26;;;;;;;8.70;3.67;;;;;;;;;;5018152;28;20026;-75
2023/03/11 01:40:52;;;;;;;5.50;2.50;;;;;;;;;;5016205;28;20478;-75
2023/03/11 01:43:40;;;;;;;4.18;3.15;;;;;;;;;;5023151;28;20060;-76
2023/03/11 01:46:06;;;;;;;5.43;2.95;;;;;;;;;;5016005;28;20204;-75
2023/03/11 01:48:32;;;;;;;5.47;3.25;;;;;;;;;;5022495;28;20121;-75
2023/03/11 01:50:58;;;;;;;4.88;3.35;;;;;;;;;;5029270;28;20033;-75
2023/03/11 01:53:24;;;;;;;4.95;3.13;;;;;;;;;;5029844;28;20022;-75
2023/03/11 01:55:54;;;;;;;4.75;2.78;;;;;;;;;;5031372;28;20021;-75
2023/03/11 01:58:23;;;;;;;4.13;2.63;;;;;;;;;;5032307;28;20036;-75
2023/03/11 02:00:49;;;;;;;3.22;2.55;;;;;;;;;;5032142;28;20080;-75
2023/03/11 02:03:26;;;;;;;4.28;2.75;;;;;;;;;;5031407;28;20144;-75
2023/03/11 02:05:53;;;;;;;5.50;2.90;;;;;;;;;;5031649;28;20037;-75
2023/03/11 02:08:19;;;;;;;7.53;2.92;;;;;;;;;;5031683;28;20026;-75
2023/03/11 02:10:46;;;;;;;5.40;2.95;;;;;;;;;;5031422;28;20021;-75
2023/03/11 02:13:12;;;;;;;8.30;3.83;;;;;;;;;;5031800;28;20032;-75
2023/03/11 02:15:38;;;;;;;4.53;2.90;;;;;;;;;;5031542;28;20029;-75
2023/03/11 02:18:05;;;;;;;7.65;3.25;;;;;;;;;;5031869;28;20021;-75
2023/03/11 02:20:43;;;;;;;5.28;2.60;;;;;;;;;;5030394;28;20095;-75
2023/03/11 02:23:11;;;;;;;4.30;3.15;;;;;;;;;;5030101;28;20064;-75
2023/03/11 02:25:55;;;;;;;4.55;3.47;;;;;;;;;;5031367;28;20022;-75
2023/03/11 02:28:22;;;;;;;3.75;2.67;;;;;;;;;;5031255;28;20052;-75
2023/03/11 02:30:49;;;;;;;6.30;3.08;;;;;;;;;;5031558;28;20026;-76
2023/03/11 02:33:16;;;;;;;4.57;2.78;;;;;;;;;;5031353;28;20021;-76
2023/03/11 02:35:42;;;;;;;5.80;2.58;;;;;;;;;;5030191;28;20060;-76
2023/03/11 02:38:08;;;;;;;3.55;2.20;;;;;;;;;;5031439;28;20100;-75
2023/03/11 02:40:54;;;;;;;4.25;1.98;;;;;;;;;;5029628;28;20026;-75
2023/03/11 02:43:23;;;;;;;8.50;4.50;;;;;;;;;;5031213;28;20080;-75
2023/03/11 02:45:49;;;;;;;3.85;2.47;;;;;;;;;;5030665;28;20033;-75
2023/03/11 02:48:17;;;;;;;5.28;2.60;;;;;;;;;;5031317;28;20029;-76
2023/03/11 02:50:44;;;;;;;3.83;2.63;;;;;;;;;;5031001;28;20479;-75
2023/03/11 02:53:10;;;;;;;3.10;2.53;;;;;;;;;;5031133;28;20021;-76
2023/03/11 02:55:36;;;;;;;3.88;2.55;;;;;;;;;;5031099;28;20052;-75
2023/03/11 02:58:02;;;;;;;5.15;3.15;;;;;;;;;;5029414;28;20033;-75
2023/03/11 03:00:28;;;;;;;3.72;2.30;;;;;;;;;;5029368;28;20076;-75
2023/03/11 03:02:54;;;;;;;4.13;2.40;;;;;;;;;;5029572;28;20090;-76
2023/03/11 03:05:21;;;;;;;5.28;3.22;;;;;;;;;;5029499;28;20497;-75
2023/03/11 03:07:47;;;;;;;7.00;2.85;;;;;;;;;;5029406;28;20060;-75
2023/03/11 03:10:14;;;;;;;4.32;2.65;;;;;;;;;;5030640;28;20033;-75
2023/03/11 03:12:40;;;;;;;3.65;2.13;;;;;;;;;;5030492;28;20478;-75
2023/03/11 03:15:07;;;;;;;5.93;2.85;;;;;;;;;;5029151;28;20037;-74
2023/03/11 03:17:33;;;;;;;5.70;3.13;;;;;;;;;;5030533;28;20040;-75
2023/03/11 03:19:59;;;;;;;4.13;2.78;;;;;;;;;;5029294;28;20291;-75
2023/03/11 03:22:26;;;;;;;5.00;2.72;;;;;;;;;;5028918;28;20374;-76
2023/03/11 03:24:52;;;;;;;3.60;2.72;;;;;;;;;;5030340;28;20029;-75
2023/03/11 03:27:19;;;;;;;4.80;2.40;;;;;;;;;;5029815;28;20497;-75
2023/03/11 03:29:45;;;;;;;5.60;3.00;;;;;;;;;;5029211;28;20060;-75
2023/03/11 03:32:11;;;;;;;4.57;2.78;;;;;;;;;;5030323;28;20053;-75
2023/03/11 03:34:37;;;;;;;4.38;2.40;;;;;;;;;;5029078;28;20021;-75
2023/03/11 03:37:03;;;;;;;4.03;2.30;;;;;;;;;;5028980;28;20063;-75
2023/03/11 03:39:29;;;;;;;5.68;3.40;;;;;;;;;;5028738;28;20033;-75
2023/03/11 03:41:55;;;;;;;5.43;2.83;;;;;;;;;;5030028;28;20032;-75
2023/03/11 03:44:21;;;;;;;4.95;3.00;;;;;;;;;;5030173;28;20421;-76
2023/03/11 03:46:47;;;;;;;7.13;2.70;;;;;;;;;;5029857;28;20407;-75
2023/03/11 03:49:13;;;;;;;5.55;2.88;;;;;;;;;;5029999;28;20045;-75
2023/03/11 03:51:39;;;;;;;7.15;2.72;;;;;;;;;;5029839;28;20029;-75
2023/03/11 03:54:05;;;;;;;6.72;2.50;;;;;;;;;;5029806;28;20025;-75
2023/03/11 03:56:31;;;;;;;5.00;2.63;;;;;;;;;;5029257;28;20436;-75
2023/03/11 03:58:57;;;;;;;4.47;2.65;;;;;;;;;;5029119;28;20017;-75
2023/03/11 04:01:23;;;;;;;6.57;2.80;;;;;;;;;;5028391;28;20087;-75
2023/03/11 04:03:49;;;;;;;3.88;2.35;;;;;;;;;;5029775;28;20529;-75
2023/03/11 04:06:17;;;;;;;4.57;3.20;;;;;;;;;;5029601;28;20037;-75
2023/03/11 04:08:44;;;;;;;4.13;2.50;;;;;;;;;;5029696;28;20018;-75
2023/03/11 04:11:10;;;;;;;4.10;2.20;;;;;;;;;;5028102;28;20064;-75
2023/03/11 04:13:36;;;;;;;5.97;2.20;;;;;;;;;;5029615;28;20025;-75
2023/03/11 04:16:06;;;;;;;5.32;3.08;;;;;;;;;;5028276;28;20053;-76
2023/03/11 04:18:32;;;;;;;4.30;2.78;;;;;;;;;;5028130;28;20032;-76
2023/03/11 04:20:58;;;;;;;5.25;2.90;;;;;;;;;;5029747;28;20018;-75
2023/03/11 04:23:24;;;;;;;3.88;2.67;;;;;;;;;;5029857;28;20079;-75
2023/03/11 04:25:50;;;;;;;3.15;2.72;;;;;;;;;;5027995;28;20031;-75
2023/03/11 04:28:16;;;;;;;5.95;2.40;;;;;;;;;;5029442;28;20045;-76
2023/03/11 04:30:42;;;;;;;4.00;2.80;;;;;;;;;;5029351;28;20356;-75
2023/03/11 04:33:08;;;;;;;6.47;2.83;;;;;;;;;;5027905;28;20565;-76
2023/03/11 04:35:34;;;;;;;6.25;3.50;;;;;;;;;;5029272;28;20477;-76
2023/03/11 04:38:00;;;;;;;11.70;3.47;;;;;;;;;;5029106;28;20021;-79
2023/03/11 04:40:27;;;;;;;6.18;3.05;;;;;;;;;;5029021;28;20025;-77
2023/03/11 04:42:53;;;;;;;5.35;2.97;;;;;;;;;;5029299;28;20034;-76
2023/03/11 04:45:19;;;;;;;10.48;4.30;;;;;;;;;;5029134;28;20022;-76
2023/03/11 04:47:49;;;;;;;3.88;2.20;;;;;;;;;;5028954;28;20114;-77
2023/03/11 04:50:15;;;;;;;;;;;;;;;;;;5029693;28;20025;-77
2023/03/11 04:52:41;;;;;;;7.13;3.15;;;;;;;;;;5027715;28;19940;-77
2023/03/11 04:55:07;;;;;;;4.93;3.13;;;;;;;;;;5029610;28;20026;-76
2023/03/11 04:57:33;;;;;;;3.60;3.03;;;;;;;;;;5027831;28;20036;-76
2023/03/11 04:59:59;;;;;;;5.13;3.05;;;;;;;;;;5028052;28;20053;-76
2023/03/11 05:02:25;;;;;;;3.00;2.22;;;;;;;;;;5029678;28;20021;-75
2023/03/11 05:04:51;;;;;;;6.50;3.53;;;;;;;;;;5027890;28;20052;-76
2023/03/11 05:07:17;;;;;;;3.50;2.75;;;;;;;;;;5029068;28;20032;-76
2023/03/11 05:09:43;;;;;;;6.10;2.42;;;;;;;;;;5030019;28;20013;-76
2023/03/11 05:12:10;;;;;;;4.63;3.15;;;;;;;;;;5032641;28;20163;-75
2023/03/11 05:14:36;;;;;;;4.45;3.08;;;;;;;;;;5033284;28;20017;-77
2023/03/11 05:17:03;;;;;;;7.18;2.67;;;;;;;;;;5032776;28;20473;-78
2023/03/11 05:19:33;;;;;;;8.02;3.10;;;;;;;;;;5033681;28;20026;-74
2023/03/11 05:21:59;;;;;;;4.93;2.63;;;;;;;;;;5032133;28;20048;-75
2023/03/11 05:24:25;;;;;;;6.97;3.33;;;;;;;;;;5033241;28;20029;-74
2023/03/11 05:26:52;;;;;;;5.13;3.53;;;;;;;;;;5032945;28;20036;-75
2023/03/11 05:29:18;;;;;;;5.68;2.90;;;;;;;;;;5033269;28;20453;-75
2023/03/11 05:31:44;;;;;;;3.40;2.30;;;;;;;;;;5034603;28;20256;-76
2023/03/11 05:34:10;;;;;;;3.70;2.72;;;;;;;;;;5033107;28;20406;-75
2023/03/11 05:36:36;;;;;;;5.00;2.88;;;;;;;;;;5033031;28;20773;-76
2023/03/11 05:39:02;;;;;;;5.45;2.85;;;;;;;;;;5031282;28;20037;-75
2023/03/11 05:41:28;;;;;;;3.97;2.55;;;;;;;;;;5032547;28;20209;-75
2023/03/11 05:43:54;;;;;;;6.53;2.97;;;;;;;;;;5032484;28;20473;-75
2023/03/11 05:46:20;;;;;;;5.45;2.72;;;;;;;;;;5032293;28;20033;-76
2023/03/11 05:48:46;;;;;;;5.78;3.40;;;;;;;;;;5032602;28;20500;-75
2023/03/11 05:51:13;;;;;;;6.68;4.15;;;;;;;;;;5032302;28;20029;-75
2023/03/11 05:53:41;;;;;;;5.68;2.55;;;;;;;;;;5032235;28;20554;-75
2023/03/11 05:56:07;;;;;;;3.53;2.33;;;;;;;;;;5032236;28;20026;-75
2023/03/11 05:58:33;;;;;;;5.55;2.60;;;;;;;;;;5032612;28;20053;-75
2023/03/11 06:01:00;;;;;;;4.97;3.40;;;;;;;;;;5032134;28;20083;-74
2023/03/11 06:03:26;;;;;;;7.55;5.03;;;;;;;;;;5030948;28;20026;-75
2023/03/11 06:05:52;;;;;;;6.47;3.38;;;;;;;;;;5032202;28;20104;-76
2023/03/11 06:08:19;;;;;;;4.75;2.97;;;;;;;;;;5030735;28;20124;-75
2023/03/11 06:10:45;;;;;;;4.60;3.22;;;;;;;;;;5032311;28;20113;-75
2023/03/11 06:13:11;;;;;;;5.00;2.75;;;;;;;;;;5032111;28;20033;-74
2023/03/11 06:15:38;;;;;;;9.60;3.50;;;;;;;;;;5031928;28;20021;-75
2023/03/11 06:18:04;;;;;;;4.13;2.38;;;;;;;;;;5030701;28;20068;-76
2023/03/11 06:20:30;;;;;;;5.18;2.47;;;;;;;;;;5030504;28;20474;-75
2023/03/11 06:22:58;;;;;;;4.25;2.15;;;;;;;;;;5032071;28;20456;-77
2023/03/11 06:25:24;;;;;;;5.68;3.22;;;;;;;;;;5031667;28;20035;-75
2023/03/11 06:27:51;;;;;;;7.93;2.47;;;;;;;;;;5031925;28;20132;-75
2023/03/11 06:30:17;;;;;;;4.13;1.92;;;;;;;;;;5031662;28;20029;-75
2023/03/11 06:32:45;;;;;;;5.07;2.85;;;;;;;;;;5031346;28;20095;-75
2023/03/11 06:35:11;;;;;;;4.63;2.15;;;;;;;;;;5031500;28;20378;-75
2023/03/11 06:37:37;;;;;;;3.63;2.63;;;;;;;;;;5032066;28;20041;-75
2023/03/11 06:40:04;;;;;;;4.32;2.38;;;;;;;;;;5032084;28;20026;-75
2023/03/11 06:42:30;;;;;;;4.97;3.10;;;;;;;;;;5032653;28;20079;-76
2023/03/11 06:44:56;;;;;;;13.20;3.67;;;;;;;;;;5032774;28;20068;-76
2023/03/11 06:47:22;;;;;;;7.97;3.25;;;;;;;;;;5032557;28;20029;-74
2023/03/11 06:49:50;;;;;;;4.40;2.67;;;;;;;;;;5032863;28;20063;-75
2023/03/11 06:52:16;;;;;;;4.32;2.75;;;;;;;;;;5031856;28;20018;-77
2023/03/11 06:54:42;;;;;;;2.85;1.88;;;;;;;;;;5031298;28;20021;-74
2023/03/11 06:57:08;;;;;;;4.95;2.13;;;;;;;;;;5029870;28;20049;-77
2023/03/11 06:59:35;;;;;;;2.63;1.90;;;;;;;;;;5031211;28;20017;-75
2023/03/11 07:02:02;;;;;;;3.15;2.00;;;;;;;;;;5031534;28;20033;-77
2023/03/11 07:04:28;;;;;;;5.15;2.88;;;;;;;;;;5031278;28;20104;-76
2023/03/11 07:06:55;;;;;;;4.75;2.60;;;;;;;;;;5030926;28;20037;-76
2023/03/11 07:09:24;;;;;;;3.83;1.88;;;;;;;;;;5031161;28;20066;-77
2023/03/11 07:11:50;;;;;;;;;;;;;;;;;;5031432;28;20109;-76
2023/03/11 07:14:18;;;;;;;4.70;2.47;;;;;;;;;;5031040;28;19909;-77
2023/03/11 07:16:44;;;;;;;6.75;2.80;;;;;;;;;;5030946;28;20485;-75
2023/03/11 07:19:11;;;;;;;3.55;2.53;;;;;;;;;;5024297;28;20025;-74
2023/03/11 07:21:38;;;;;;;3.45;2.22;;;;;;;;;;5029339;28;20025;-76
2023/03/11 07:24:06;;;;;;;5.97;2.72;;;;;;;;;;5029819;28;20021;-76
2023/03/11 07:26:35;;;;;;;3.53;2.03;;;;;;;;;;5029262;28;20505;-75
2023/03/11 07:29:01;;;;;;;10.18;4.10;;;;;;;;;;5028043;28;20127;-74
2023/03/11 07:31:29;;;;;;;3.55;1.52;;;;;;;;;;5026575;28;20033;-75
2023/03/11 07:33:56;;;;;;;6.40;2.30;;;;;;;;;;5026377;28;20021;-75
2023/03/11 07:36:23;;;;;;;6.15;1.92;;;;;;;;;;5026938;28;20099;-76
2023/03/11 07:38:54;;;;;;;2.35;1.75;;;;;;;;;;5026578;28;20478;-76
2023/03/11 07:41:20;;;;;;;4.20;2.05;;;;;;;;;;5025982;28;20125;-75
2023/03/11 07:43:46;;;;;;;7.78;1.98;;;;;;;;;;5026995;28;20026;-75
2023/03/11 07:46:15;;;;;;;5.00;2.30;;;;;;;;;;5027662;28;20382;-76
2023/03/11 07:48:41;;;;;;;2.22;1.92;;;;;;;;;;5027423;28;20056;-76
2023/03/11 07:51:10;;;;;;;4.50;1.90;;;;;;;;;;5025160;28;20503;-77
2023/03/11 07:53:36;;;;;;;4.35;2.13;;;;;;;;;;5024066;28;20022;-77
2023/03/11 07:56:02;;;;;;;4.97;2.75;;;;;;;;;;5025102;28;20029;-77
2023/03/11 07:58:28;;;;;;;4.88;2.78;;;;;;;;;;5025445;28;20029;-77
2023/03/11 08:00:55;;;;;;;4.32;2.13;;;;;;;;;;5027305;28;20021;-76
2023/03/11 08:03:23;;;;;;;60.88;15.55;;;;;;;;;;5026883;28;20025;-77
2023/03/11 08:05:49;;;;;;;11.00;3.83;;;;;;;;;;5026696;28;20511;-77
2023/03/11 08:08:15;;;;;;;3.47;2.42;;;;;;;;;;5029956;28;20120;-76
2023/03/11 08:10:41;;;;;;;3.47;2.15;;;;;;;;;;5033914;28;20021;-75
2023/03/11 08:13:07;;;;;;;3.72;2.15;;;;;;;;;;5026772;28;20266;-75
2023/03/11 08:15:33;;;;;;;3.88;1.85;;;;;;;;;;5036507;28;20033;-76
2023/03/11 08:17:59;;;;;;;5.68;2.95;;;;;;;;;;5035700;28;20313;-75
2023/03/11 08:20:25;;;;;;;4.78;2.63;;;;;;;;;;5033197;28;20105;-74
2023/03/11 08:22:51;;;;;;;4.47;2.38;;;;;;;;;;5026635;28;20488;-75
2023/03/11 08:25:17;;;;;;;6.80;2.80;;;;;;;;;;5025565;28;20465;-75
2023/03/11 08:27:43;;;;;;;4.50;2.55;;;;;;;;;;5026281;28;20490;-77
2023/03/11 08:30:10;;;;;;;3.13;1.98;;;;;;;;;;5029109;28;20433;-76
2023/03/11 08:32:36;;;;;;;5.93;2.75;;;;;;;;;;5028088;28;20392;-75
2023/03/11 08:35:03;;;;;;;5.82;3.10;;;;;;;;;;5029876;28;20052;-75
2023/03/11 08:37:30;;;;;;;3.53;2.53;;;;;;;;;;5034604;28;20192;-77
2023/03/11 08:39:56;;;;;;;5.82;3.83;;;;;;;;;;5030144;28;20111;-75
2023/03/11 08:42:22;;;;;;;3.42;2.63;;;;;;;;;;5028237;28;20045;-75
2023/03/11 08:44:51;;;;;;;7.63;3.53;;;;;;;;;;5028399;28;20149;-76
2023/03/11 08:47:17;;;;;;;3.10;2.00;;;;;;;;;;5029802;28;20045;-77
2023/03/11 08:49:43;;;;;;;3.85;2.03;;;;;;;;;;5029456;28;20073;-80
2023/03/11 08:52:09;;;;;;;4.68;2.78;;;;;;;;;;5025597;28;20327;-76
2023/03/11 08:54:35;;;;;;;2.80;1.85;;;;;;;;;;5026405;28;20067;-79
2023/03/11 08:57:02;;;;;;;5.43;2.50;;;;;;;;;;5028997;28;20030;-77
2023/03/11 08:59:31;;;;;;;3.33;2.08;;;;;;;;;;5030260;28;20013;-76
2023/03/11 09:01:57;;;;;;;6.15;2.80;;;;;;;;;;5028903;28;20025;-75
2023/03/11 09:04:23;;;;;;;2.00;1.85;;;;;;;;;;5027511;28;20033;-75
2023/03/11 09:06:49;;;;;;;6.93;3.35;;;;;;;;;;5027623;28;20235;-76
2023/03/11 09:09:16;;;;;;;2.70;1.42;;;;;;;;;;5027820;28;20014;-79
2023/03/11 09:11:43;;;;;;;2.60;1.83;;;;;;;;;;5027051;28;20462;-78
2023/03/11 09:14:09;;;;;;;4.13;2.17;;;;;;;;;;5010081;28;20391;-79
2023/03/11 09:16:35;;;;;;;4.25;2.38;;;;;;;;;;5030213;28;20032;-77
2023/03/11 09:19:05;;;;;;;7.70;2.45;;;;;;;;;;5027873;28;20501;-79
2023/03/11 09:21:31;;;;;;;5.97;1.88;;;;;;;;;;5026232;28;20041;-79
2023/03/11 09:23:58;;;;;;;3.05;2.08;;;;;;;;;;5010192;28;20080;-77
2023/03/11 09:26:24;;;;;;;2.58;2.28;;;;;;;;;;5009709;28;20033;-83
2023/03/11 09:28:53;;;;;;;3.28;1.75;;;;;;;;;;5009530;28;20554;-78
2023/03/11 09:31:19;;;;;;;7.03;4.07;;;;;;;;;;5008388;28;20026;-79
2023/03/11 09:33:45;;;;;;;5.53;3.25;;;;;;;;;;5010681;28;20141;-81
2023/03/11 09:36:12;;;;;;;5.10;2.95;;;;;;;;;;5009573;28;20475;-77
2023/03/11 09:38:38;;;;;;;7.30;1.83;;;;;;;;;;5008098;28;20026;-79
2023/03/11 09:41:13;;;;;;;5.63;1.80;;;;;;;;;;5011611;28;20104;-77
2023/03/11 09:43:52;;;;;;;2.17;1.90;;;;;;;;;;5008788;28;20574;-79
2023/03/11 09:46:34;;;;;;;3.83;2.03;;;;;;;;;;5009258;28;20474;-76
2023/03/11 09:49:06;;;;;;;3.00;2.20;;;;;;;;;;5009099;28;20066;-74
2023/03/11 09:51:42;;;;;;;3.35;1.52;;;;;;;;;;5008890;28;20032;-75
2023/03/11 09:54:12;;;;;;;2.22;1.80;;;;;;;;;;5009161;28;20026;-74
2023/03/11 09:56:38;;;;;;;2.05;1.55;;;;;;;;;;5009472;28;20022;-74
2023/03/11 09:59:07;;;;;;;3.72;2.03;;;;;;;;;;5010903;28;20033;-75
2023/03/11 10:01:36;;;;;;;7.97;2.47;;;;;;;;;;5010957;28;20029;-75
2023/03/11 10:04:08;;;;;;;2.37;1.63;;;;;;;;;;5010672;28;20494;-78
2023/03/11 10:06:34;;;;;;;2.55;2.08;;;;;;;;;;5012508;28;20289;-77
2023/03/11 10:09:19;;;;;;;3.35;1.27;;;;;;;;;;5010981;28;20036;-76
2023/03/11 10:11:50;;;;;;;4.55;2.67;;;;;;;;;;5012003;28;20061;-78
2023/03/11 10:14:35;;;;;;;6.68;3.35;;;;;;;;;;5012698;28;20069;-76
2023/03/11 10:17:01;;;;;;;4.45;2.88;;;;;;;;;;5012620;28;20168;-77
2023/03/11 10:19:36;;;;;;;4.07;2.20;;;;;;;;;;5012222;28;20061;-75
2023/03/11 10:22:10;;;;;;;2.95;1.58;;;;;;;;;;5011146;28;20030;-76
2023/03/11 10:24:42;;;;;;;2.85;1.67;;;;;;;;;;5012479;28;20031;-75
2023/03/11 10:27:21;;;;;;;2.10;1.83;;;;;;;;;;5012250;28;20351;-77
2023/03/11 10:30:06;;;;;;;6.10;2.47;;;;;;;;;;5012284;28;20137;-75
2023/03/11 10:32:42;;;;;;;4.47;2.20;;;;;;;;;;5021375;28;20025;-76
2023/03/11 10:35:16;;;;;;;3.38;2.60;;;;;;;;;;5030341;28;20018;-77
2023/03/11 10:37:45;;;;;;;3.50;2.70;;;;;;;;;;5024549;28;20033;-77
2023/03/11 10:40:31;;;;;;;2.50;1.50;;;;;;;;;;5026596;28;20032;-77
2023/03/11 10:43:02;;;;;;;3.88;2.08;;;;;;;;;;5011205;28;20025;-77
2023/03/11 10:45:30;;;;;;;1.90;1.70;;;;;;;;;;5015993;28;20017;-76
2023/03/11 10:47:57;;;;;;;5.03;1.42;;;;;;;;;;5029916;28;20118;-75
2023/03/11 10:50:23;;;;;;;2.80;1.55;;;;;;;;;;5036278;28;20025;-76
2023/03/11 10:53:06;;;;;;;1.27;1.17;;;;;;;;;;5028180;28;20028;-76
2023/03/11 10:55:32;;;;;;;4.10;2.55;;;;;;;;;;5016892;28;20034;-77
2023/03/11 10:58:06;;;;;;;1.50;1.40;;;;;;;;;;5022322;28;20018;-75
2023/03/11 11:00:32;;;;;;;4.15;1.25;;;;;;;;;;5028055;28;20358;-74
2023/03/11 11:02:58;;;;;;;4.43;2.50;;;;;;;;;;5059985;28;20033;-77
2023/03/11 11:05:34;;;;;;;2.30;1.83;;;;;;;;;;5053074;28;20036;-75
2023/03/11 11:08:11;;;;;;;1.52;1.42;;;;;;;;;;5034599;28;20037;-77
2023/03/11 11:10:48;;;;;;;2.10;1.40;;;;;;;;;;5024859;28;20030;-75
2023/03/11 11:13:15;;;;;;;2.97;2.50;;;;;;;;;;5032206;28;20232;-76
2023/03/11 11:15:50;;;;;;;3.35;2.40;;;;;;;;;;5032019;28;20029;-76
2023/03/11 11:18:19;;;;;;;3.42;2.92;;;;;;;;;;5032971;28;20037;-76
2023/03/11 11:20:55;;;;;;;1.87;1.53;;;;;;;;;;5027022;28;20029;-77
2023/03/11 11:23:28;;;;;;;2.80;1.60;;;;;;;;;;5029288;28;20467;-76
2023/03/11 11:25:58;;;;;;;1.67;1.58;;;;;;;;;;5025181;28;20029;-76
2023/03/11 11:28:24;;;;;;;1.95;1.67;;;;;;;;;;5050067;28;20084;-75
2023/03/11 11:31:04;;;;;;;2.15;1.95;;;;;;;;;;5039776;28;20018;-75
2023/03/11 11:33:39;;;;;;;2.42;2.22;;;;;;;;;;5033136;28;20075;-74
2023/03/11 11:36:11;;;;;;;4.00;1.70;;;;;;;;;;5039958;28;20021;-76
2023/03/11 11:38:37;;;;;;;2.63;1.63;;;;;;;;;;5034019;28;20072;-76
2023/03/11 11:41:05;;;;;;;2.22;2.03;;;;;;;;;;5036956;28;20152;-77
2023/03/11 11:43:34;;;;;;;1.48;1.38;;;;;;;;;;5037740;28;20029;-77
2023/03/11 11:46:06;;;;;;;2.15;1.45;;;;;;;;;;5037664;28;20072;-76
2023/03/11 11:48:36;;;;;;;12.20;6.55;;;;;;;;;;5038004;28;20033;-76
2023/03/11 11:51:07;;;;;;;2.63;2.40;;;;;;;;;;5038052;28;20029;-77
2023/03/11 11:53:49;;;;;;;6.63;1.63;;;;;;;;;;5036388;28;20032;-75
2023/03/11 11:56:17;;;;;;;3.90;1.40;;;;;;;;;;5035774;28;20067;-77
2023/03/11 11:58:43;;;;;;;1.50;1.40;;;;;;;;;;5035859;28;20236;-77
2023/03/11 12:01:30;;;;;;;1.38;1.25;;;;;;;;;;5036831;28;20127;-76
2023/03/11 12:04:00;;;;;;;2.40;2.03;;;;;;;;;;5036491;28;20022;-76
2023/03/11 12:06:32;;;;;;;1.58;1.40;;;;;;;;;;5036622;28;20277;-76
2023/03/11 12:09:22;;;;;;;2.53;1.52;;;;;;;;;;5035894;28;20041;-76
2023/03/11 12:11:48;;;;;;;1.30;1.30;;;;;;;;;;5035841;28;20022;-76
2023/03/11 12:14:15;;;;;;;1.60;1.50;;;;;;;;;;5036594;28;20320;-76
2023/03/11 12:16:42;;;;;;;3.33;1.70;;;;;;;;;;5035123;28;20017;-76
2023/03/11 12:19:11;;;;;;;1.58;1.48;;;;;;;;;;5030760;28;20048;-75
2023/03/11 12:21:43;;;;;;;2.50;1.73;;;;;;;;;;5027352;28;20291;-75
2023/03/11 12:24:25;;;;;;;1.50;1.40;;;;;;;;;;5024661;28;20284;-76
2023/03/11 12:26:52;;;;;;;3.90;1.42;;;;;;;;;;5025895;28;20117;-75
2023/03/11 12:29:29;;;;;;;2.00;1.40;;;;;;;;;;5026863;28;20120;-76
2023/03/11 12:31:56;;;;;;;3.88;1.35;;;;;;;;;;5022649;28;20034;-77
2023/03/11 12:34:26;;;;;;;4.53;2.08;;;;;;;;;;5017203;28;20177;-75
2023/03/11 12:36:52;;;;;;;1.92;1.73;;;;;;;;;;5013138;28;20490;-76
2023/03/11 12:39:28;;;;;;;1.75;1.63;;;;;;;;;;5010385;28;20044;-76
2023/03/11 12:42:12;;;;;;;2.33;1.55;;;;;;;;;;5015114;28;20022;-75
2023/03/11 12:44:39;;;;;;;1.88;1.55;;;;;;;;;;5013586;28;20038;-76
2023/03/11 12:47:11;;;;;;;1.73;1.63;;;;;;;;;;5012491;28;20424;-76
2023/03/11 12:49:44;;;;;;;1.70;1.60;;;;;;;;;;5011871;28;20092;-76
2023/03/11 12:52:10;;;;;;;6.40;1.60;;;;;;;;;;5008046;28;20034;-78
2023/03/11 12:54:40;;;;;;;1.70;1.08;;;;;;;;;;5012176;28;20028;-77
2023/03/11 12:57:16;;;;;;;3.80;2.53;;;;;;;;;;5012936;28;20421;-75
2023/03/11 12:59:42;;;;;;;2.22;1.27;;;;;;;;;;5012203;28;20022;-76
2023/03/11 13:02:24;;;;;;;1.38;1.27;;;;;;;;;;5013319;28;20022;-76
2023/03/11 13:05:10;;;;;;;1.48;1.38;;;;;;;;;;5013501;28;20033;-78
2023/03/11 13:07:42;;;;;;;4.22;1.17;;;;;;;;;;5012285;28;20286;-78
2023/03/11 13:10:14;;;;;;;2.92;1.17;;;;;;;;;;5013901;28;20037;-75
2023/03/11 13:12:40;;;;;;;1.60;1.50;;;;;;;;;;5013716;28;20048;-75
2023/03/11 13:15:18;;;;;;;2.47;1.55;;;;;;;;;;5013687;28;20091;-76
2023/03/11 13:18:06;;;;;;;2.50;1.23;;;;;;;;;;5007698;28;20022;-75
2023/03/11 13:20:41;;;;;;;5.95;2.08;;;;;;;;;;5015623;28;20100;-77
2023/03/11 13:23:08;;;;;;;5.72;1.40;;;;;;;;;;5014263;28;20021;-77
2023/03/11 13:25:49;;;;;;;1.48;1.38;;;;;;;;;;5011453;28;20033;-76
2023/03/11 13:28:19;;;;;;;1.23;1.17;;;;;;;;;;5016139;28;20057;-76
2023/03/11 13:31:08;;;;;;;1.30;1.20;;;;;;;;;;5016196;28;20026;-75
2023/03/11 13:33:35;;;;;;;;;;;;;;;;;;5004040;28;20096;-78
2023/03/11 13:36:20;;;;;;;5.20;1.27;;;;;;;;;;5012557;28;19996;-76
2023/03/11 13:39:05;;;;;;;1.42;1.33;;;;;;;;;;5016498;28;20112;-76
2023/03/11 13:41:35;;;;;;;1.27;1.20;;;;;;;;;;5016022;28;20060;-78
2023/03/11 13:44:11;;;;;;;1.85;1.75;;;;;;;;;;5014155;28;20021;-79
2023/03/11 13:46:39;;;;;;;1.42;1.33;;;;;;;;;;5017430;28;20029;-76
2023/03/11 13:49:10;;;;;;;2.42;1.20;;;;;;;;;;5014357;28;20022;-78
2023/03/11 13:51:39;;;;;;;2.25;1.58;;;;;;;;;;5014802;28;20017;-76
2023/03/11 13:54:21;;;;;;;2.08;1.25;;;;;;;;;;5018747;28;20033;-76
2023/03/11 13:56:49;;;;;;;1.40;1.13;;;;;;;;;;5017303;28;20481;-76
2023/03/11 13:59:22;;;;;;;1.38;1.17;;;;;;;;;;5020565;28;20079;-76
2023/03/11 14:01:50;;;;;;;2.72;1.17;;;;;;;;;;5018360;28;20406;-77
2023/03/11 14:04:20;;;;;;;1.48;1.38;;;;;;;;;;5014030;28;20128;-77
2023/03/11 14:06:46;;;;;;;1.40;1.30;;;;;;;;;;5020531;28;20037;-75
2023/03/11 14:09:18;;;;;;;1.20;1.10;;;;;;;;;;5014624;28;20030;-77
2023/03/11 14:11:46;;;;;;;1.73;1.60;;;;;;;;;;5017619;28;20034;-76
2023/03/11 14:14:39;;;;;;;3.25;1.65;;;;;;;;;;5014276;28;20026;-77
2023/03/11 14:17:06;;;;;;;0.90;0.90;;;;;;;;;;5008955;28;20041;-77
2023/03/11 14:19:32;;;;;;;1.33;1.27;;;;;;;;;;5014642;28;20029;-78
2023/03/11 14:21:58;;;;;;;1.10;1.10;;;;;;;;;;5027803;28;20242;-76
2023/03/11 14:24:31;;;;;;;1.88;1.13;;;;;;;;;;5028117;28;20063;-77
2023/03/11 14:26:58;;;;;;;1.33;1.23;;;;;;;;;;5016481;28;20021;-76
2023/03/11 14:29:35;;;;;;;2.28;1.17;;;;;;;;;;5020315;28;20137;-76
2023/03/11 14:32:16;;;;;;;1.83;1.45;;;;;;;;;;5011730;28;20356;-76
2023/03/11 14:34:42;;;;;;;1.10;1.08;;;;;;;;;;5016730;28;20026;-75
2023/03/11 14:37:23;;;;;;;1.13;1.00;;;;;;;;;;5025822;28;20013;-76
2023/03/11 14:39:49;;;;;;;1.13;1.10;;;;;;;;;;5030304;28;20485;-76
2023/03/11 14:42:36;;;;;;;2.00;1.70;;;;;;;;;;5026721;28;20053;-76
2023/03/11 14:45:15;;;;;;;1.20;1.20;;;;;;;;;;5027760;28;20025;-76
2023/03/11 14:47:47;;;;;;;1.75;1.45;;;;;;;;;;5028009;28;20528;-76
2023/03/11 14:50:16;;;;;;;1.33;1.23;;;;;;;;;;5038666;28;20273;-75
2023/03/11 14:52:47;;;;;;;1.77;1.17;;;;;;;;;;5029742;28;20367;-76